Time;durP1;ratioP1;P1;durP2;ratioP2;P2;SDS_P1;SDS_P2;PMS_P1;PMS_P2;Temp;Humidity;BMP_temperature;BMP_pressure;BME280_temperature;BME280_humidity;BME280_pressure;Samples;Min_cycle;Max_cycle;Signal;HPM_P1;HPM_P2
2022/03/23 00:00:28;;;;;;;14.90;10.00;;;;;;-10005.19;;;;105892;1288;65742;-39
2022/03/23 00:03:08;;;;;;;11.10;9.10;;;;;;-10129.49;;;;106049;1287;65782;-41
2022/03/23 00:05:39;;;;;;;12.40;9.40;;;;;;-10378.10;;;;105818;1288;65602;-37
2022/03/23 00:08:06;;;;;;;11.90;9.20;;;;;;-10005.19;;;;106048;1286;65715;-38
2022/03/23 00:10:34;;;;;;;12.50;10.00;;;;;;-10005.19;;;;105785;1288;65870;-40
2022/03/23 00:13:03;;;;;;;12.40;9.70;;;;;;-10253.80;;;;106015;1287;65692;-39
2022/03/23 00:15:31;;;;;;;12.20;9.60;;;;;;-10253.80;;;;106045;1287;65694;-36
2022/03/23 00:17:59;;;;;;;13.50;9.90;;;;;;-10378.10;;;;105835;1288;65850;-36
2022/03/23 00:20:26;;;;;;;14.10;10.40;;;;;;-10253.80;;;;105913;1288;65854;-37
2022/03/23 00:22:54;;;;;;;15.10;10.70;;;;;;-10253.80;;;;105927;1288;65665;-37
2022/03/23 00:25:22;;;;;;;12.40;9.40;;;;;;-10005.19;;;;106034;1287;65688;-40
2022/03/23 00:27:49;;;;;;;14.90;10.20;;;;;;-10005.19;;;;106042;1287;65716;-41
2022/03/23 00:30:17;;;;;;;14.50;11.30;;;;;;-10129.49;;;;105670;1288;65791;-39
2022/03/23 00:32:44;;;;;;;11.70;9.90;;;;;;-10129.49;;;;106024;1288;66159;-37
2022/03/23 00:35:12;;;;;;;13.00;11.00;;;;;;-10005.19;;;;106048;1287;65696;-37
2022/03/23 00:37:40;;;;;;;13.20;10.20;;;;;;-10005.19;;;;106049;1287;65818;-35
2022/03/23 00:40:09;;;;;;;12.20;10.10;;;;;;-10129.49;;;;106057;1287;65621;-36
2022/03/23 00:42:36;;;;;;;14.30;10.30;;;;;;-10378.10;;;;106073;1287;65644;-40
2022/03/23 00:45:06;;;;;;;13.80;10.50;;;;;;-10005.19;;;;105833;1288;65752;-41
2022/03/23 00:47:35;;;;;;;14.90;10.80;;;;;;-10253.80;;;;106067;1287;66441;-36
2022/03/23 00:50:03;;;;;;;16.20;11.20;;;;;;-10253.80;;;;106050;1287;65696;-37
2022/03/23 00:52:30;;;;;;;15.10;11.00;;;;;;-10129.49;;;;105718;1289;65695;-37
2022/03/23 00:54:57;;;;;;;13.40;11.30;;;;;;-10253.80;;;;105916;1288;65610;-36
2022/03/23 00:57:24;;;;;;;14.30;11.30;;;;;;-10129.49;;;;105926;1288;65751;-37
2022/03/23 00:59:52;;;;;;;14.50;11.10;;;;;;-10129.49;;;;105879;1288;65665;-36
2022/03/23 01:02:19;;;;;;;13.70;11.00;;;;;;-10253.80;;;;106045;1287;65934;-39
2022/03/23 01:04:46;;;;;;;15.40;11.50;;;;;;-10253.80;;;;105901;1288;65725;-41
2022/03/23 01:07:13;;;;;;;14.90;11.90;;;;;;-10129.49;;;;105928;1288;65755;-35
2022/03/23 01:09:40;;;;;;;14.80;12.30;;;;;;-10129.49;;;;106028;1287;65608;-37
2022/03/23 01:12:09;;;;;;;13.90;11.50;;;;;;-10005.19;;;;106083;1287;65719;-41
2022/03/23 01:14:36;;;;;;;14.80;11.80;;;;;;-10005.19;;;;105966;1288;66338;-41
2022/03/23 01:17:06;;;;;;;15.00;11.50;;;;;;-10005.19;;;;106045;1287;65710;-40
2022/03/23 01:19:33;;;;;;;16.00;11.30;;;;;;-10502.40;;;;106036;1287;65690;-40
2022/03/23 01:22:01;;;;;;;15.30;11.40;;;;;;-10378.10;;;;105750;1288;65713;-35
2022/03/23 01:24:28;;;;;;;14.70;11.40;;;;;;-10253.80;;;;105982;1288;65610;-36
2022/03/23 01:26:55;;;;;;;13.40;11.10;;;;;;-10129.49;;;;105915;1288;65604;-36
2022/03/23 01:29:22;;;;;;;14.50;11.30;;;;;;-10005.19;;;;105939;1288;65732;-36
2022/03/23 01:31:49;;;;;;;15.10;11.80;;;;;;-10129.49;;;;106033;1287;65581;-41
2022/03/23 01:34:17;;;;;;;15.50;11.60;;;;;;-10378.10;;;;105921;1288;65720;-41
2022/03/23 01:36:44;;;;;;;15.20;11.20;;;;;;-10129.49;;;;106054;1287;63144;-36
2022/03/23 01:39:11;;;;;;;14.00;11.50;;;;;;-10253.80;;;;105936;1288;65719;-35
2022/03/23 01:41:40;;;;;;;15.10;11.60;;;;;;-10378.10;;;;106016;1287;65678;-36
2022/03/23 01:44:22;;;;;;;14.00;11.40;;;;;;-10005.19;;;;106054;1288;65617;-36
2022/03/23 01:47:12;;;;;;;16.70;11.60;;;;;;-10253.80;;;;106028;1288;66728;-36
2022/03/23 01:49:44;;;;;;;15.50;12.10;;;;;;-10253.80;;;;106055;1287;65601;-36
2022/03/23 01:52:16;;;;;;;13.40;10.90;;;;;;-10005.19;;;;106051;1287;65614;-40
2022/03/23 01:54:44;;;;;;;14.90;11.80;;;;;;-10378.10;;;;106028;1287;65834;-38
2022/03/23 01:57:15;;;;;;;14.50;11.80;;;;;;-10129.49;;;;106043;1287;65591;-40
2022/03/23 01:59:43;;;;;;;14.60;12.00;;;;;;-10005.19;;;;105940;1287;65819;-41
2022/03/23 02:02:11;;;;;;;15.00;11.60;;;;;;-10129.49;;;;105966;1288;65700;-39
2022/03/23 02:04:39;;;;;;;14.40;12.30;;;;;;-10129.49;;;;106066;1287;65755;-41
2022/03/23 02:07:07;;;;;;;14.80;12.20;;;;;;-10253.80;;;;105931;1288;65648;-40
2022/03/23 02:09:34;;;;;;;14.30;11.40;;;;;;-10253.80;;;;106067;1287;65682;-41
2022/03/23 02:12:08;;;;;;;14.60;11.70;;;;;;-10129.49;;;;106014;1288;65703;-37
2022/03/23 02:14:36;;;;;;;15.40;11.70;;;;;;-10378.10;;;;106059;1287;65649;-36
2022/03/23 02:17:05;;;;;;;16.30;12.60;;;;;;-10253.80;;;;105937;1288;65608;-35
2022/03/23 02:19:33;;;;;;;15.50;12.00;;;;;;-10129.49;;;;106086;1287;65808;-35
2022/03/23 02:22:01;;;;;;;13.80;11.60;;;;;;-10129.49;;;;106059;1288;65617;-37
2022/03/23 02:24:30;;;;;;;15.80;12.30;;;;;;-10129.49;;;;106026;1287;65598;-37
2022/03/23 02:26:59;;;;;;;14.80;11.70;;;;;;-10129.49;;;;106094;1287;65639;-40
2022/03/23 02:29:31;;;;;;;13.50;11.40;;;;;;-10005.19;;;;105926;1288;65655;-41
2022/03/23 02:32:01;;;;;;;14.20;11.40;;;;;;-10129.49;;;;106019;1287;65549;-37
2022/03/23 02:34:29;;;;;;;16.60;12.00;;;;;;-10129.49;;;;106044;1287;65649;-35
2022/03/23 02:36:58;;;;;;;14.10;12.10;;;;;;-10253.80;;;;105929;1288;65772;-36
2022/03/23 02:39:26;;;;;;;15.00;12.30;;;;;;-10253.80;;;;105887;1287;65688;-37
2022/03/23 02:41:56;;;;;;;14.30;12.40;;;;;;-10253.80;;;;105947;1288;65758;-37
2022/03/23 02:44:29;;;;;;;15.80;12.10;;;;;;-10502.40;;;;105869;1288;65700;-36
2022/03/23 02:46:57;;;;;;;15.30;12.00;;;;;;-10129.49;;;;106032;1287;65782;-40
2022/03/23 02:49:24;;;;;;;15.60;11.90;;;;;;-10129.49;;;;105911;1288;65808;-40
2022/03/23 02:51:51;;;;;;;14.20;11.50;;;;;;-10005.19;;;;106029;1288;65604;-35
2022/03/23 03:04:00;;;;;;;14.50;11.80;;;;;;-10129.49;;;;106013;1288;65678;-37
2022/03/23 03:06:27;;;;;;;14.20;11.60;;;;;;-10129.49;;;;106044;1287;65738;-37
2022/03/23 03:08:54;;;;;;;15.00;12.00;;;;;;-10129.49;;;;106046;1287;65598;-36
2022/03/23 03:11:22;;;;;;;13.90;12.40;;;;;;-10253.80;;;;105897;1289;65648;-41
2022/03/23 03:13:50;;;;;;;14.80;12.20;;;;;;-10129.49;;;;105946;1288;65734;-41
2022/03/23 03:16:18;;;;;;;13.30;11.90;;;;;;-10253.80;;;;105934;1288;65610;-36
2022/03/23 03:18:49;;;;;;;15.20;12.10;;;;;;-10253.80;;;;106084;1287;65591;-36
2022/03/23 03:21:17;;;;;;;15.40;12.80;;;;;;-10129.49;;;;105924;1288;65567;-37
2022/03/23 03:23:47;;;;;;;14.50;12.40;;;;;;-10129.49;;;;106030;1287;65803;-37
2022/03/23 03:26:17;;;;;;;16.60;12.90;;;;;;-10129.49;;;;105939;1288;65589;-40
2022/03/23 03:28:45;;;;;;;16.70;13.60;;;;;;-10129.49;;;;105874;1288;65816;-40
2022/03/23 03:31:14;;;;;;;16.40;13.10;;;;;;-10253.80;;;;105996;1287;65437;-39
2022/03/23 03:33:43;;;;;;;14.20;12.20;;;;;;-10129.49;;;;106226;1288;65602;-41
2022/03/23 03:36:11;;;;;;;15.90;12.80;;;;;;-10005.19;;;;106061;1287;65757;-41
2022/03/23 03:38:39;;;;;;;18.60;13.30;;;;;;-10129.49;;;;106053;1288;65768;-42
2022/03/23 03:41:09;;;;;;;16.70;14.00;;;;;;-10502.40;;;;106224;1287;65719;-43
2022/03/23 03:43:36;;;;;;;15.70;12.90;;;;;;-10378.10;;;;106274;1287;65720;-40
2022/03/23 03:46:10;;;;;;;15.80;13.40;;;;;;-10005.19;;;;106238;1287;66569;-37
2022/03/23 03:48:40;;;;;;;15.10;12.90;;;;;;-10129.49;;;;106044;1288;65590;-37
2022/03/23 03:51:08;;;;;;;17.90;13.40;;;;;;-10378.10;;;;106243;1287;65700;-40
2022/03/23 03:53:36;;;;;;;16.20;14.20;;;;;;-10253.80;;;;105955;1288;65758;-40
2022/03/23 03:56:04;;;;;;;16.90;13.60;;;;;;-10129.49;;;;105980;1287;65816;-38
2022/03/23 03:58:32;;;;;;;16.60;14.40;;;;;;-10253.80;;;;106041;1288;65692;-37
2022/03/23 04:01:00;;;;;;;16.70;13.70;;;;;;-10129.49;;;;106150;1287;65557;-37
2022/03/23 04:03:27;;;;;;;17.20;14.30;;;;;;-10253.80;;;;106210;1288;67033;-37
2022/03/23 04:05:54;;;;;;;16.30;14.10;;;;;;-10129.49;;;;106166;1287;65608;-44
2022/03/23 04:08:22;;;;;;;16.90;14.30;;;;;;-10253.80;;;;106214;1288;65608;-36
2022/03/23 04:10:49;;;;;;;17.50;14.40;;;;;;-10129.49;;;;106178;1287;65635;-41
2022/03/23 04:13:17;;;;;;;16.10;13.10;;;;;;-10129.49;;;;105996;1287;65591;-42
2022/03/23 04:15:45;;;;;;;17.40;14.90;;;;;;-10005.19;;;;105918;1288;65552;-40
2022/03/23 04:18:12;;;;;;;17.80;14.60;;;;;;-10378.10;;;;105815;1291;65693;-40
2022/03/23 04:20:40;;;;;;;16.40;13.80;;;;;;-10129.49;;;;106260;1288;65608;-36
2022/03/23 04:23:07;;;;;;;16.50;13.80;;;;;;-10253.80;;;;106195;1287;65699;-36
2022/03/23 04:25:34;;;;;;;17.30;14.30;;;;;;-10129.49;;;;106214;1287;65615;-41
2022/03/23 04:28:01;;;;;;;16.50;14.40;;;;;;-10005.19;;;;105797;1288;571316;-43
2022/03/23 04:30:31;;;;;;;16.70;13.70;;;;;;-10253.80;;;;105939;1287;65715;-39
2022/03/23 04:33:00;;;;;;;17.30;14.80;;;;;;-10005.19;;;;106240;1287;65820;-37
2022/03/23 04:35:28;;;;;;;17.00;14.40;;;;;;-10129.49;;;;106212;1287;65716;-39
2022/03/23 04:37:56;;;;;;;16.20;14.50;;;;;;-10253.80;;;;105941;1288;65726;-39
2022/03/23 04:40:24;;;;;;;17.50;14.30;;;;;;-10129.49;;;;106082;1287;65679;-40
2022/03/23 04:42:52;;;;;;;18.20;15.10;;;;;;-10005.19;;;;106213;1287;66194;-37
2022/03/23 04:45:19;;;;;;;18.70;15.40;;;;;;-10129.49;;;;106227;1287;65606;-36
2022/03/23 04:47:47;;;;;;;17.40;15.20;;;;;;-10005.19;;;;105961;1287;65669;-36
2022/03/23 04:50:16;;;;;;;16.70;14.50;;;;;;-10253.80;;;;106011;1287;65714;-37
2022/03/23 04:52:45;;;;;;;18.30;15.10;;;;;;-10378.10;;;;106050;1287;65619;-36
2022/03/23 04:55:15;;;;;;;18.20;15.90;;;;;;-10502.40;;;;106057;1287;65744;-36
2022/03/23 04:57:43;;;;;;;17.00;14.70;;;;;;-10378.10;;;;106241;1287;65859;-39
2022/03/23 05:00:15;;;;;;;17.50;14.90;;;;;;-10253.80;;;;106251;1287;66044;-40
2022/03/23 05:02:46;;;;;;;18.10;15.30;;;;;;-10005.19;;;;106231;1287;65559;-41
2022/03/23 05:05:15;;;;;;;19.00;15.70;;;;;;-10005.19;;;;106226;1287;65567;-41
2022/03/23 05:07:44;;;;;;;16.80;14.70;;;;;;-10129.49;;;;105998;1287;65822;-37
2022/03/23 05:10:13;;;;;;;16.70;14.50;;;;;;-10253.80;;;;105952;1290;65642;-35
2022/03/23 05:12:44;;;;;;;16.60;14.80;;;;;;-10253.80;;;;106216;1287;65786;-35
2022/03/23 05:15:14;;;;;;;16.00;14.30;;;;;;-10378.10;;;;106206;1288;65578;-37
2022/03/23 05:17:42;;;;;;;19.00;15.60;;;;;;-10253.80;;;;106262;1287;65579;-40
2022/03/23 05:20:11;;;;;;;16.90;14.50;;;;;;-10253.80;;;;106242;1287;65716;-40
2022/03/23 05:22:39;;;;;;;19.70;15.40;;;;;;-10129.49;;;;105994;1288;65623;-42
2022/03/23 05:25:07;;;;;;;18.20;15.20;;;;;;-10129.49;;;;106220;1287;65590;-40
2022/03/23 05:27:40;;;;;;;16.90;14.00;;;;;;-10129.49;;;;106067;1287;65630;-41
2022/03/23 05:30:10;;;;;;;18.50;16.50;;;;;;-10253.80;;;;106239;1287;65734;-41
2022/03/23 05:32:39;;;;;;;20.40;17.00;;;;;;-10005.19;;;;105908;1287;65614;-40
2022/03/23 05:35:08;;;;;;;20.20;17.80;;;;;;-10253.80;;;;106030;1288;65719;-41
2022/03/23 05:37:36;;;;;;;19.80;17.00;;;;;;-10129.49;;;;106055;1287;65724;-40
2022/03/23 05:40:05;;;;;;;20.50;18.20;;;;;;-10129.49;;;;106242;1287;65744;-40
2022/03/23 05:42:32;;;;;;;19.90;17.80;;;;;;-10129.49;;;;106075;1287;65515;-41
2022/03/23 05:45:00;;;;;;;21.30;19.00;;;;;;-10129.49;;;;106211;1288;65744;-39
2022/03/23 05:47:27;;;;;;;20.70;18.30;;;;;;-10005.19;;;;106276;1287;65624;-36
2022/03/23 05:49:55;;;;;;;21.30;19.20;;;;;;-10005.19;;;;106039;1287;65626;-36
2022/03/23 05:52:22;;;;;;;20.70;17.90;;;;;;-10378.10;;;;106046;1287;65604;-40
2022/03/23 05:54:50;;;;;;;21.90;18.00;;;;;;-10253.80;;;;106217;1287;65723;-40
2022/03/23 05:57:18;;;;;;;23.90;18.70;;;;;;-10005.19;;;;105892;1290;65583;-40
2022/03/23 05:59:47;;;;;;;20.40;18.30;;;;;;-10129.49;;;;106245;1287;65630;-41
2022/03/23 06:02:14;;;;;;;22.00;19.60;;;;;;-10005.19;;;;106069;1287;65681;-39
2022/03/23 06:04:41;;;;;;;21.00;18.50;;;;;;-10378.10;;;;106202;1287;66277;-40
2022/03/23 06:07:09;;;;;;;23.00;18.90;;;;;;-10253.80;;;;106049;1287;65604;-40
2022/03/23 06:09:36;;;;;;;20.90;18.70;;;;;;-10129.49;;;;106057;1287;65590;-40
2022/03/23 06:12:04;;;;;;;20.90;17.90;;;;;;-10378.10;;;;106239;1287;65711;-36
2022/03/23 06:14:34;;;;;;;20.80;18.00;;;;;;-10005.19;;;;106279;1288;65704;-35
2022/03/23 06:17:02;;;;;;;21.60;17.60;;;;;;-10129.49;;;;106223;1287;65659;-41
2022/03/23 06:19:29;;;;;;;20.70;17.80;;;;;;-10129.49;;;;106226;1287;65670;-42
2022/03/23 06:21:56;;;;;;;20.40;17.90;;;;;;-10502.40;;;;105928;1288;65761;-39
2022/03/23 06:24:23;;;;;;;20.70;17.60;;;;;;-10253.80;;;;106220;1287;65744;-40
2022/03/23 06:26:50;;;;;;;21.80;17.90;;;;;;-10129.49;;;;106212;1287;65775;-35
2022/03/23 06:29:17;;;;;;;24.00;19.60;;;;;;-10005.19;;;;106037;1288;65635;-36
2022/03/23 06:31:44;;;;;;;21.80;17.90;;;;;;-10005.19;;;;106226;1288;65794;-43
2022/03/23 06:34:12;;;;;;;19.10;16.90;;;;;;-10253.80;;;;106252;1287;65700;-40
2022/03/23 06:36:39;;;;;;;19.60;17.10;;;;;;-10253.80;;;;106221;1288;65591;-40
2022/03/23 06:39:07;;;;;;;19.80;16.60;;;;;;-10005.19;;;;105872;1290;65848;-40
2022/03/23 06:41:34;;;;;;;21.40;18.20;;;;;;-10005.19;;;;105786;1290;65603;-40
2022/03/23 06:44:02;;;;;;;20.50;16.70;;;;;;-10253.80;;;;106202;1287;65720;-40
2022/03/23 06:46:29;;;;;;;22.60;18.10;;;;;;-10129.49;;;;105902;1288;65615;-40
2022/03/23 06:48:56;;;;;;;20.80;18.50;;;;;;-10129.49;;;;106063;1288;65617;-40
2022/03/23 06:51:23;;;;;;;23.00;17.50;;;;;;-10005.19;;;;106185;1287;65644;-36
2022/03/23 06:53:51;;;;;;;20.80;17.60;;;;;;-10378.10;;;;105844;1289;65569;-37
2022/03/23 06:56:19;;;;;;;18.90;16.70;;;;;;-10129.49;;;;105947;1288;65675;-36
2022/03/23 06:58:46;;;;;;;18.90;16.50;;;;;;-10378.10;;;;105871;1289;65773;-41
2022/03/23 07:01:14;;;;;;;21.10;17.30;;;;;;-10129.49;;;;105885;1290;65692;-36
2022/03/23 07:03:41;;;;;;;19.50;16.20;;;;;;-10378.10;;;;106243;1287;65643;-37
2022/03/23 07:06:09;;;;;;;18.30;16.20;;;;;;-10005.19;;;;106177;1288;65678;-40
2022/03/23 07:11:30;;;;;;;19.80;16.60;;;;;;-10253.80;;;;105936;1287;65743;-40
2022/03/23 07:13:58;;;;;;;18.50;16.20;;;;;;-10129.49;;;;106224;1287;65590;-38
2022/03/23 07:16:25;;;;;;;20.40;16.10;;;;;;-10129.49;;;;106210;1287;65710;-36
2022/03/23 07:18:52;;;;;;;19.60;16.20;;;;;;-10005.19;;;;106059;1288;65669;-36
2022/03/23 07:21:20;;;;;;;17.70;15.80;;;;;;-10253.80;;;;106093;1287;65667;-42
2022/03/23 07:23:47;;;;;;;18.60;15.80;;;;;;-10129.49;;;;106210;1287;65581;-41
2022/03/23 07:26:16;;;;;;;20.10;16.30;;;;;;-10253.80;;;;106251;1287;65672;-35
2022/03/23 07:28:44;;;;;;;17.00;14.90;;;;;;-10378.10;;;;106102;1287;65711;-36
2022/03/23 07:31:13;;;;;;;18.00;16.10;;;;;;-10129.49;;;;106247;1287;66315;-36
2022/03/23 07:33:40;;;;;;;18.50;16.10;;;;;;-10129.49;;;;105967;1288;65715;-35
2022/03/23 07:36:08;;;;;;;17.70;15.30;;;;;;-10378.10;;;;106206;1287;65706;-37
2022/03/23 07:38:36;;;;;;;17.90;15.60;;;;;;-10129.49;;;;106227;1287;65686;-39
2022/03/23 07:41:03;;;;;;;18.00;15.70;;;;;;-10129.49;;;;106081;1287;65603;-36
2022/03/23 07:43:30;;;;;;;18.50;15.80;;;;;;-10129.49;;;;106235;1287;65833;-36
2022/03/23 07:45:58;;;;;;;18.20;14.90;;;;;;-10378.10;;;;106247;1287;66046;-41
2022/03/23 07:48:25;;;;;;;19.80;15.50;;;;;;-10502.40;;;;106241;1287;65693;-45
2022/03/23 07:50:52;;;;;;;18.20;14.70;;;;;;-10253.80;;;;106119;1287;65724;-38
2022/03/23 07:53:19;;;;;;;20.20;15.90;;;;;;-10129.49;;;;106249;1287;65719;-37
2022/03/23 07:55:47;;;;;;;19.00;15.40;;;;;;-10129.49;;;;105914;1290;65610;-38
2022/03/23 07:58:14;;;;;;;19.10;15.90;;;;;;-10253.80;;;;106220;1287;65625;-35
2022/03/23 08:00:43;;;;;;;18.60;15.10;;;;;;-10129.49;;;;106202;1287;65857;-37
2022/03/23 08:03:10;;;;;;;18.90;15.20;;;;;;-10129.49;;;;106300;1287;65588;-37
2022/03/23 08:05:39;;;;;;;17.80;15.30;;;;;;-10129.49;;;;106224;1287;65614;-36
2022/03/23 08:08:08;;;;;;;17.30;15.40;;;;;;-10129.49;;;;106078;1287;65675;-31
2022/03/23 08:10:43;;;;;;;19.30;15.70;;;;;;-10378.10;;;;105939;1288;65611;-32
2022/03/23 08:13:12;;;;;;;18.10;15.20;;;;;;-10253.80;;;;105872;1290;65855;-32
2022/03/23 08:15:40;;;;;;;18.70;15.20;;;;;;-10253.80;;;;105902;1290;65615;-34
2022/03/23 08:18:07;;;;;;;18.60;16.20;;;;;;-10253.80;;;;105947;1287;65624;-37
2022/03/23 08:20:35;;;;;;;17.50;14.90;;;;;;-10129.49;;;;105852;1290;65842;-32
2022/03/23 08:23:08;;;;;;;17.20;14.90;;;;;;-10129.49;;;;105946;1288;65591;-30
2022/03/23 08:25:41;;;;;;;18.00;14.30;;;;;;-10005.19;;;;105932;1287;65731;-31
2022/03/23 08:28:14;;;;;;;16.60;14.70;;;;;;-10129.49;;;;105946;1290;65748;-40
2022/03/23 08:30:43;;;;;;;16.40;13.90;;;;;;-10253.80;;;;105759;1290;66565;-34
2022/03/23 08:33:11;;;;;;;16.30;13.40;;;;;;-10253.80;;;;105904;1291;65628;-32
2022/03/23 08:35:39;;;;;;;16.00;14.30;;;;;;-10005.19;;;;105931;1288;65623;-35
2022/03/23 08:38:07;;;;;;;18.30;14.80;;;;;;-10253.80;;;;105874;1287;65723;-35
2022/03/23 08:40:35;;;;;;;16.10;14.30;;;;;;-10129.49;;;;105942;1288;65711;-34
2022/03/23 08:43:02;;;;;;;15.90;13.70;;;;;;-10253.80;;;;105933;1287;65722;-32
2022/03/23 08:45:30;;;;;;;16.70;13.30;;;;;;-10378.10;;;;106046;1287;65725;-35
2022/03/23 08:47:57;;;;;;;16.10;13.90;;;;;;-10129.49;;;;106081;1287;65704;-35
2022/03/23 08:50:25;;;;;;;15.40;13.60;;;;;;-10253.80;;;;106083;1287;65621;-32
2022/03/23 08:52:53;;;;;;;16.40;13.80;;;;;;-10129.49;;;;106084;1287;65730;-32
2022/03/23 08:55:23;;;;;;;15.60;13.80;;;;;;-10253.80;;;;105880;1288;65604;-32
2022/03/23 08:57:51;;;;;;;15.70;13.60;;;;;;-10005.19;;;;105889;1288;65841;-34
2022/03/23 09:00:18;;;;;;;15.70;13.30;;;;;;-10005.19;;;;106070;1287;65708;-35
2022/03/23 09:02:46;;;;;;;15.90;14.10;;;;;;-10129.49;;;;106075;1287;65737;-34
2022/03/23 09:05:14;;;;;;;15.30;13.60;;;;;;-10129.49;;;;105885;1288;65706;-34
2022/03/23 09:07:42;;;;;;;17.00;14.20;;;;;;-10005.19;;;;105895;1288;65641;-34
2022/03/23 09:10:14;;;;;;;16.80;14.10;;;;;;-10129.49;;;;105890;1288;65736;-39
2022/03/23 09:12:43;;;;;;;15.60;13.80;;;;;;-10378.10;;;;105898;1288;66454;-31
2022/03/23 09:15:13;;;;;;;15.00;13.10;;;;;;-10502.40;;;;105956;1288;65713;-32
2022/03/23 09:17:42;;;;;;;14.50;12.90;;;;;;-10253.80;;;;106001;1288;65715;-34
2022/03/23 09:20:12;;;;;;;14.90;12.90;;;;;;-10129.49;;;;106105;1287;65612;-35
2022/03/23 09:22:41;;;;;;;14.40;12.00;;;;;;-10129.49;;;;106075;1287;65697;-33
2022/03/23 09:25:11;;;;;;;16.00;14.00;;;;;;-10378.10;;;;106127;1287;66390;-34
2022/03/23 09:27:43;;;;;;;14.90;13.20;;;;;;-10129.49;;;;106067;1287;65586;-32
2022/03/23 09:30:14;;;;;;;14.80;12.90;;;;;;-10253.80;;;;106081;1287;65683;-32
2022/03/23 09:32:46;;;;;;;15.10;13.40;;;;;;-10129.49;;;;106173;1287;65860;-34
2022/03/23 09:35:15;;;;;;;15.00;13.10;;;;;;-10253.80;;;;106083;1287;65626;-35
2022/03/23 09:37:49;;;;;;;15.50;13.80;;;;;;-10005.19;;;;106110;1287;65653;-33
2022/03/23 09:40:27;;;;;;;14.80;13.20;;;;;;-10253.80;;;;105893;1286;65723;-35
2022/03/23 09:42:56;;;;;;;16.60;13.10;;;;;;-10129.49;;;;106082;1287;65832;-30
2022/03/23 09:48:09;;;;;;;15.30;13.40;;;;;;-10502.40;;;;105903;1287;65623;-35
2022/03/23 09:50:43;;;;;;;15.80;13.60;;;;;;-10253.80;;;;106071;1287;65618;-33
2022/03/23 09:53:10;;;;;;;17.30;14.80;;;;;;-10253.80;;;;105858;1288;65589;-31
2022/03/23 09:55:38;;;;;;;16.00;14.20;;;;;;-10129.49;;;;105952;1287;65627;-32
2022/03/23 09:58:06;;;;;;;17.50;14.30;;;;;;-10253.80;;;;105923;1287;65634;-32
2022/03/23 10:00:44;;;;;;;17.10;14.00;;;;;;-10253.80;;;;106145;1287;65836;-32
2022/03/23 10:03:16;;;;;;;15.50;13.10;;;;;;-10378.10;;;;105905;1287;65710;-30
2022/03/23 10:06:47;;;;;;;14.90;13.00;;;;;;-10253.80;;;;105903;1287;64398;-32
2022/03/23 10:09:26;;;;;;;16.40;14.20;;;;;;-10129.49;;;;105087;1297;65739;-36
2022/03/23 10:12:46;;;;;;;15.10;13.50;;;;;;-10378.10;;;;105839;1288;66788;-30
2022/03/23 10:16:09;;;;;;;16.30;13.60;;;;;;-10129.49;;;;105908;1288;65744;-30
2022/03/23 10:18:54;;;;;;;15.30;13.40;;;;;;-10129.49;;;;105878;1288;65591;-33
2022/03/23 10:21:36;;;;;;;18.10;13.90;;;;;;-10005.19;;;;106132;1287;65734;-33
2022/03/23 10:24:03;;;;;;;15.30;12.80;;;;;;-10005.19;;;;106112;1287;65704;-31
2022/03/23 10:26:38;;;;;;;15.30;12.40;;;;;;-10378.10;;;;106082;1287;65738;-32
2022/03/23 10:29:20;;;;;;;15.00;12.80;;;;;;-10129.49;;;;105908;1288;65642;-33
2022/03/23 10:31:58;;;;;;;13.90;12.40;;;;;;-10129.49;;;;105879;1288;65624;-35
2022/03/23 10:34:36;;;;;;;15.30;12.90;;;;;;-10378.10;;;;106111;1287;65850;-32
2022/03/23 10:37:03;;;;;;;14.80;13.20;;;;;;-10129.49;;;;105885;1287;65674;-33
2022/03/23 10:39:31;;;;;;;14.80;12.90;;;;;;-10129.49;;;;106126;1287;65700;-31
2022/03/23 10:42:13;;;;;;;15.20;13.50;;;;;;-10129.49;;;;106035;1287;65679;-31
2022/03/23 10:44:42;;;;;;;16.70;13.90;;;;;;-10253.80;;;;106122;1287;65668;-30
2022/03/23 10:47:28;;;;;;;15.00;12.90;;;;;;-10129.49;;;;105923;1288;65859;-31
2022/03/23 10:49:57;;;;;;;15.10;13.10;;;;;;-10129.49;;;;106097;1287;65534;-33
2022/03/23 10:52:28;;;;;;;15.20;13.40;;;;;;-10253.80;;;;106226;1286;65757;-31
2022/03/23 10:55:05;;;;;;;14.90;13.30;;;;;;-10502.40;;;;106204;1287;65856;-31
2022/03/23 10:57:51;;;;;;;14.90;12.40;;;;;;-10129.49;;;;106093;1286;65617;-33
2022/03/23 11:00:34;;;;;;;14.70;12.50;;;;;;-10005.19;;;;106213;1287;65707;-30
2022/03/23 11:03:03;;;;;;;14.00;12.20;;;;;;-10129.49;;;;106204;1287;65617;-32
2022/03/23 11:05:38;;;;;;;13.70;12.20;;;;;;-10502.40;;;;106231;1287;65768;-33
2022/03/23 11:08:18;;;;;;;14.50;11.90;;;;;;-10253.80;;;;106235;1287;65722;-32
2022/03/23 11:16:43;;;;;;;14.60;11.50;;;;;;-10129.49;;;;105927;1287;65739;-33
2022/03/23 11:19:10;;;;;;;14.00;11.90;;;;;;-10005.19;;;;105919;1287;65729;-33
2022/03/23 11:22:12;;;;;;;14.10;12.20;;;;;;-10129.49;;;;105831;1290;65632;-32
2022/03/23 11:24:47;;;;;;;12.80;11.40;;;;;;-10378.10;;;;105713;1288;65723;-34
2022/03/23 11:27:18;;;;;;;14.40;11.70;;;;;;-10129.49;;;;105641;1290;65894;-34
2022/03/23 11:29:48;;;;;;;13.60;11.40;;;;;;-10502.40;;;;105824;1288;65710;-33
2022/03/23 11:32:27;;;;;;;13.00;11.60;;;;;;-10378.10;;;;105818;1287;65767;-35
2022/03/23 11:34:56;;;;;;;13.30;11.90;;;;;;-10378.10;;;;105675;1288;65668;-33
2022/03/23 11:37:28;;;;;;;14.10;11.60;;;;;;-10253.80;;;;105841;1288;65623;-40
2022/03/23 11:39:57;;;;;;;13.90;11.50;;;;;;-10005.19;;;;105918;1288;65614;-33
2022/03/23 11:42:24;;;;;;;13.60;11.10;;;;;;-10129.49;;;;105830;1289;67424;-34
2022/03/23 11:44:52;;;;;;;13.30;11.60;;;;;;-10129.49;;;;105766;1290;65767;-34
2022/03/23 11:47:28;;;;;;;13.00;11.60;;;;;;-10005.19;;;;105860;1288;65723;-33
2022/03/23 11:50:11;;;;;;;12.90;11.50;;;;;;-10253.80;;;;105774;1288;65619;-30
2022/03/23 11:53:04;;;;;;;11.90;10.50;;;;;;-10005.19;;;;105819;1288;66556;-31
2022/03/23 11:55:39;;;;;;;12.30;10.90;;;;;;-10378.10;;;;105899;1288;65732;-34
2022/03/23 11:58:21;;;;;;;12.30;10.60;;;;;;-10005.19;;;;106088;1287;65733;-38
2022/03/23 12:00:52;;;;;;;11.80;10.60;;;;;;-10005.19;;;;106086;1287;65690;-29
2022/03/23 12:03:41;;;;;;;12.50;10.90;;;;;;-10129.49;;;;105908;1287;65715;-31
2022/03/23 12:06:13;;;;;;;15.10;10.40;;;;;;-10253.80;;;;105941;1288;65497;-34
2022/03/23 12:08:49;;;;;;;13.50;10.40;;;;;;-10129.49;;;;105879;1288;66037;-29
2022/03/23 12:11:38;;;;;;;12.20;10.30;;;;;;-10378.10;;;;106053;1287;66676;-32
2022/03/23 12:14:17;;;;;;;10.90;9.60;;;;;;-10129.49;;;;106086;1287;65685;-33
2022/03/23 12:16:55;;;;;;;11.90;10.30;;;;;;-10253.80;;;;105694;1290;65614;-31
2022/03/23 12:19:33;;;;;;;12.20;9.70;;;;;;-10129.49;;;;106043;1287;65598;-31
2022/03/23 12:22:06;;;;;;;11.70;9.70;;;;;;-10253.80;;;;106083;1287;65744;-32
2022/03/23 12:25:04;;;;;;;12.00;10.00;;;;;;-10378.10;;;;105861;1288;66085;-33
2022/03/23 12:27:47;;;;;;;12.50;10.60;;;;;;-10005.19;;;;105824;1287;340921;-32
2022/03/23 12:30:26;;;;;;;14.10;10.90;;;;;;-10129.49;;;;105870;1288;65761;-30
2022/03/23 12:32:58;;;;;;;13.00;11.50;;;;;;-10378.10;;;;106048;1287;65742;-33
2022/03/23 12:35:35;;;;;;;11.30;10.10;;;;;;-10253.80;;;;105919;1287;66063;-33
2022/03/23 12:38:04;;;;;;;11.90;10.00;;;;;;-10005.19;;;;106111;1287;66412;-34
2022/03/23 12:40:41;;;;;;;10.80;8.90;;;;;;-10378.10;;;;106040;1287;65644;-32
2022/03/23 12:43:08;;;;;;;12.80;10.50;;;;;;-10129.49;;;;105841;1287;66045;-34
2022/03/23 12:45:39;;;;;;;11.80;9.30;;;;;;-10005.19;;;;106118;1287;65735;-32
2022/03/23 12:57:49;;;;;;;10.80;9.30;;;;;;-10378.10;;;;106008;1287;65775;-32
2022/03/23 12:59:26;;;;;;;11.40;9.70;;;;;;-10005.19;;;;105941;1287;66679;-32
2022/03/23 13:02:24;;;;;;;11.80;9.90;;;;;;-10129.49;;;;105501;1288;65621;-31
2022/03/23 13:04:52;;;;;;;12.00;9.70;;;;;;-10253.80;;;;106069;1287;65782;-32
2022/03/23 13:07:28;;;;;;;11.30;9.50;;;;;;-10129.49;;;;106173;1287;65709;-33
2022/03/23 13:10:07;;;;;;;11.90;9.90;;;;;;-10005.19;;;;106189;1287;65655;-33
2022/03/23 13:12:35;;;;;;;10.30;9.20;;;;;;-10129.49;;;;106141;1287;65616;-31
2022/03/23 13:15:14;;;;;;;11.90;10.20;;;;;;-10378.10;;;;106178;1287;65670;-31